Data for 12/19/2015

Time Sea-Level Adjusted Pressure Absolute Pressure Temperature Relative Humidity Dew Point   
(mb) (inHg) (mb) (inHg) (C) (F) (%) (C) (F)
00:05 1012 29.88 841 24.83 1.7 35 78 -1.7 29
00:10 1012 29.88 841 24.83 1.5 34.7 79 -1.7 29
00:15 1012 29.88 841 24.83 1.5 34.7 80 -1.6 29.1
00:20 1012 29.88 841 24.83 1.5 34.6 79 -1.9 28.7
00:25 1012 29.88 841 24.83 1.6 34.9 77 -1.9 28.6
00:30 1012 29.88 841 24.83 1.6 34.9 78 -1.8 28.8
00:35 1012 29.88 841 24.83 1.6 34.9 78 -1.9 28.6
00:40 1012 29.88 841 24.83 1.7 35 75 -2.2 28
00:45 1012 29.88 841 24.83 1.9 35.4 76 -1.9 28.6
00:50 1012 29.88 841 24.83 1.9 35.5 75 -2 28.4
00:55 1012 29.88 841 24.83 2 35.6 76 -1.9 28.7
01:00 1012 29.88 841 24.83 2.2 35.9 73 -2.2 28.1
01:05 1012 29.88 841 24.83 1.9 35.5 77 -1.7 28.9
01:10 1012 29.88 841 24.83 1.8 35.3 74 -2.4 27.7
01:15 1012 29.88 841 24.83 2.2 36 73 -2.2 28.1
01:20 1012 29.88 841 24.83 3 37.5 62 -3.6 25.5
01:25 1012 29.88 841 24.83 3.7 38.6 61 -3.1 26.4
01:30 1012 29.88 841 24.83 3.7 38.6 61 -3.1 26.4
01:35 1012 29.88 841 24.83 3.5 38.4 62 -3 26.7
01:40 1012 29.88 841 24.83 3.3 38 66 -2.5 27.6
01:45 1012 29.88 841 24.83 2.6 36.6 71 -2.2 28
01:50 1012 29.88 841 24.83 2.4 36.3 68 -2.9 26.7
01:55 1011 29.85 841 24.83 2.8 37.1 68 -2.4 27.7
02:00 1012 29.88 841 24.83 2.5 36.5 70 -2.4 27.7
02:05 1012 29.88 841 24.83 2.5 36.5 65 -3.3 26
02:10 1011 29.85 841 24.83 2.8 37 67 -2.7 27.1
02:15 1012 29.88 841 24.83 2.9 37.1 67 -2.8 27
02:20 1012 29.88 841 24.83 3 37.5 59 -4.1 24.6
02:25 1011 29.85 841 24.83 3.7 38.7 63 -2.6 27.3
02:30 1011 29.85 841 24.83 2.9 37.3 68 -2.3 27.8
02:35 1011 29.85 840 24.81 2.5 36.5 65 -3.4 26
02:40 1011 29.85 840 24.81 2.8 37.1 65 -3.1 26.4
02:45 1011 29.85 840 24.81 2.8 37 66 -2.9 26.8
02:50 1011 29.85 840 24.81 2.5 36.5 67 -2.9 26.7
02:55 1011 29.85 840 24.81 2.5 36.6 65 -3.4 25.9
03:00 1011 29.85 840 24.81 2.8 37.1 65 -3.1 26.5
03:05 1011 29.85 840 24.81 2.6 36.8 65 -3.2 26.3
03:10 1011 29.85 840 24.81 3.1 37.6 56 -4.8 23.4
03:15 1011 29.85 840 24.81 3.8 38.8 64 -2.4 27.6
03:20 1011 29.85 840 24.81 3.2 37.7 59 -4.2 24.5
03:25 1010 29.83 840 24.81 3.7 38.6 62 -2.9 26.9
03:30 1010 29.83 840 24.81 2.7 36.8 68 -2.6 27.4
03:35 1010 29.83 840 24.81 2.2 36 64 -3.8 25.1
03:40 1010 29.83 840 24.81 2.6 36.6 65 -3.4 25.9
03:45 1010 29.83 839 24.78 3.2 37.7 50 -6.3 20.6
03:50 1010 29.83 839 24.78 4.6 40.2 51 -4.7 23.5
03:55 1010 29.83 839 24.78 3.8 38.8 62 -2.8 27
04:00 1010 29.83 839 24.78 2.4 36.4 68 -2.9 26.7
04:05 1010 29.83 839 24.78 1.9 35.3 68 -3.3 26
04:10 1010 29.83 839 24.78 1.7 35.1 70 -3.2 26.2
04:15 1010 29.83 839 24.78 1.7 35.1 69 -3.4 25.8
04:20 1010 29.83 839 24.78 2.1 35.8 66 -3.5 25.7
04:25 1010 29.83 839 24.78 2 35.6 69 -3.1 26.5
04:30 1010 29.83 839 24.78 1.9 35.4 65 -3.9 25
04:35 1010 29.83 839 24.78 2.4 36.2 65 -3.5 25.7
04:40 1010 29.83 839 24.78 2.3 36.1 64 -3.9 24.9
04:45 1009 29.8 839 24.78 2.7 36.8 56 -5.1 22.7
04:50 1010 29.83 839 24.78 3.7 38.6 56 -4.4 24.1
04:55 1009 29.8 839 24.78 3.4 38.2 55 -4.8 23.3
05:00 1009 29.8 839 24.78 3.5 38.3 56 -4.4 24.1
05:05 1009 29.8 839 24.78 3.6 38.4 51 -5.8 21.6
05:10 1009 29.8 839 24.78 4.3 39.8 47 -6 21.3
05:15 1009 29.8 839 24.78 4.4 40 53 -4.3 24.3
05:20 1010 29.83 839 24.78 4 39.3 48 -6.1 21
05:25 1010 29.83 839 24.78 4.4 39.9 54 -4.2 24.4
05:30 1010 29.83 839 24.78 3.7 38.6 51 -5.5 22.2
05:35 1010 29.83 839 24.78 3.7 38.6 55 -4.6 23.7
05:40 1010 29.83 839 24.78 3.7 38.6 49 -6 21.1
05:45 1010 29.83 839 24.78 4.2 39.6 48 -5.8 21.6
05:50 1009 29.8 839 24.78 4.3 39.7 49 -5.4 22.2
05:55 1009 29.8 839 24.78 4.1 39.3 48 -5.9 21.5
06:00 1010 29.83 839 24.78 4.3 39.7 48 -5.7 21.8
06:05 1010 29.83 839 24.78 4.1 39.4 49 -5.7 21.7
06:10 1010 29.83 839 24.78 3.9 39 52 -5 22.9
06:15 1009 29.8 839 24.78 3.5 38.3 52 -5.4 22.2
06:20 1009 29.8 839 24.78 3.6 38.4 51 -5.7 21.7
06:25 1009 29.8 839 24.78 3.7 38.7 55 -4.4 24.1
06:30 1009 29.8 839 24.78 3.2 37.8 58 -4.3 24.3
06:35 1009 29.8 839 24.78 2.7 36.8 57 -4.9 23.2
06:40 1009 29.8 838 24.75 2.9 37.1 54 -5.7 21.8
06:45 1009 29.8 839 24.78 3.2 37.8 55 -4.9 23.2
06:50 1009 29.8 838 24.75 2.9 37.1 56 -5.1 22.7
06:55 1009 29.8 838 24.75 2.9 37.3 57 -4.8 23.4
07:00 1009 29.8 838 24.75 2.7 36.8 60 -4.4 24.1
07:05 1009 29.8 838 24.75 2.3 36.2 59 -4.8 23.3
07:10 1009 29.8 838 24.75 2.4 36.3 63 -4 24.7
07:15 1009 29.8 838 24.75 2 35.5 65 -3.9 25
07:20 1009 29.8 838 24.75 1.8 35.3 62 -4.7 23.6
07:25 1009 29.8 838 24.75 2.2 36 61 -4.5 23.9
07:30 1009 29.8 838 24.75 2.3 36.2 63 -4 24.8
07:35 1009 29.8 839 24.78 2.2 35.9 59 -4.9 23.1
07:40 1009 29.8 839 24.78 2.7 36.8 55 -5.4 22.3
07:45 1009 29.8 839 24.78 2.9 37.2 61 -3.8 25.1
07:50 1009 29.8 838 24.75 2.3 36.1 58 -5 22.9
07:55 1009 29.8 838 24.75 2.7 36.8 60 -4.3 24.2
08:00 1009 29.8 838 24.75 2.3 36.2 59 -4.8 23.3
08:05 1009 29.8 838 24.75 2.4 36.3 60 -4.5 23.9
08:10 1009 29.8 838 24.75 2.4 36.3 57 -5.3 22.5
08:15 1009 29.8 838 24.75 2.5 36.4 61 -4.2 24.5
08:20 1009 29.8 838 24.75 2.5 36.5 59 -4.7 23.5
08:25 1009 29.8 838 24.75 2.4 36.3 65 -3.5 25.6
08:30 1009 29.8 838 24.75 1.8 35.2 63 -4.4 24
08:35 1009 29.8 838 24.75 1.9 35.4 63 -4.5 23.9
08:40 1009 29.8 838 24.75 2.1 35.8 64 -4.1 24.6
08:45 1009 29.8 838 24.75 2 35.5 64 -4.1 24.6
08:50 1009 29.8 838 24.75 1.9 35.4 66 -3.8 25.2
08:55 1009 29.8 838 24.75 1.6 34.9 68 -3.6 25.5
09:00 1009 29.8 838 24.75 1.5 34.7 67 -3.9 25
09:05 1009 29.8 838 24.75 1.6 34.9 68 -3.6 25.5
09:10 1009 29.8 838 24.75 1.8 35.2 65 -4.2 24.5
09:15 1009 29.8 838 24.75 2.1 35.8 61 -4.6 23.7
09:20 1009 29.8 838 24.75 2.7 36.9 60 -4.2 24.4
09:25 1009 29.8 838 24.75 2.6 36.7 61 -4.3 24.3
09:30 1009 29.8 838 24.75 2.9 37.2 58 -4.6 23.8
09:35 1009 29.8 838 24.75 3.4 38.1 55 -4.9 23.2
09:40 1009 29.8 838 24.75 3.9 39 51 -5.3 22.4
09:45 1009 29.8 838 24.75 4.6 40.3 49 -5.2 22.6
09:50 1009 29.8 839 24.78 5 41 47 -5.3 22.4
09:55 1009 29.8 839 24.78 5.1 41.3 52 -3.9 25
10:00 1009 29.8 839 24.78 4.2 39.6 54 -4.4 24.1
10:05 1009 29.8 839 24.78 4.3 39.7 53 -4.4 24.2
10:10 1010 29.83 839 24.78 4.1 39.4 52 -4.8 23.3
10:15 1009 29.8 839 24.78 4.1 39.4 54 -4.4 24.1
10:20 1010 29.83 839 24.78 3.8 38.9 54 -4.7 23.5
10:25 1010 29.83 839 24.78 3.7 38.7 54 -4.8 23.4
10:30 1010 29.83 839 24.78 3.7 38.7 55 -4.5 24
10:35 1010 29.83 839 24.78 3.6 38.5 57 -4.3 24.3
10:40 1010 29.83 839 24.78 3.4 38.1 57 -4.3 24.3
10:45 1010 29.83 839 24.78 3.2 37.8 58 -4.1 24.5
10:50 1010 29.83 839 24.78 3 37.5 60 -3.9 24.9
10:55 1010 29.83 839 24.78 3 37.4 59 -4.2 24.5
11:00 1010 29.83 839 24.78 3.1 37.6 58 -4.3 24.2
11:05 1010 29.83 839 24.78 3.4 38 58 -4 24.8
11:10 1010 29.83 839 24.78 3.4 38.2 59 -3.9 24.9
11:15 1010 29.83 839 24.78 3.7 38.7 58 -3.9 25
11:20 1010 29.83 839 24.78 4 39.2 56 -4 24.9
11:25 1010 29.83 839 24.78 4.1 39.3 58 -3.6 25.6
11:30 1010 29.83 839 24.78 4.1 39.4 57 -3.7 25.4
11:35 1010 29.83 839 24.78 4 39.2 57 -3.7 25.3
11:40 1010 29.83 839 24.78 3.8 38.9 58 -3.7 25.4
11:45 1010 29.83 839 24.78 4 39.2 58 -3.5 25.8
11:50 1010 29.83 839 24.78 4 39.2 58 -3.5 25.7
11:55 1010 29.83 839 24.78 3.8 38.9 59 -3.5 25.6
12:00 1010 29.83 839 24.78 3.9 39 58 -3.5 25.7
12:05 1010 29.83 839 24.78 3.9 39 61 -3 26.6
12:10 1010 29.83 839 24.78 3.6 38.4 60 -3.4 25.8
12:15 1010 29.83 839 24.78 3.7 38.6 60 -3.4 25.9
12:20 1010 29.83 839 24.78 3.9 39 59 -3.3 26
12:25 1010 29.83 839 24.78 4.1 39.3 59 -3.2 26.3
12:30 1010 29.83 839 24.78 4.1 39.4 58 -3.5 25.8
12:35 1010 29.83 839 24.78 4.2 39.5 58 -3.4 25.9
12:40 1010 29.83 839 24.78 4.4 39.9 56 -3.5 25.6
12:45 1010 29.83 839 24.78 4.6 40.4 56 -3.3 26
12:50 1010 29.83 839 24.78 4.7 40.4 56 -3.4 25.9
12:55 1010 29.83 839 24.78 4.7 40.5 56 -3.2 26.2
13:00 1009 29.8 839 24.78 4.8 40.7 59 -2.6 27.4
13:05 1009 29.8 839 24.78 4.6 40.2 59 -2.8 26.9
13:10 1009 29.8 838 24.75 4.3 39.8 59 -3 26.6
13:15 1009 29.8 838 24.75 3.9 39 60 -3.1 26.5
13:20 1009 29.8 839 24.78 3.5 38.3 61 -3.2 26.2
13:25 1009 29.8 839 24.78 3.3 37.9 65 -2.6 27.3
13:30 1009 29.8 839 24.78 3.2 37.8 63 -3.2 26.3
13:35 1009 29.8 838 24.75 3.2 37.7 64 -2.9 26.7
13:40 1009 29.8 838 24.75 2.9 37.2 64 -3.2 26.3
13:45 1009 29.8 838 24.75 2.9 37.2 65 -3 26.6
13:50 1009 29.8 838 24.75 2.9 37.1 67 -2.7 27.1
13:55 1009 29.8 838 24.75 2.7 36.9 68 -2.7 27.2
14:00 1009 29.8 838 24.75 2.4 36.3 70 -2.6 27.3
14:05 1009 29.8 838 24.75 2.5 36.4 70 -2.5 27.5
14:10 1009 29.8 838 24.75 2.4 36.4 71 -2.4 27.7
14:15 1009 29.8 838 24.75 2.3 36.2 72 -2.2 28
14:20 1009 29.8 838 24.75 2 35.7 72 -2.5 27.5
14:25 1009 29.8 838 24.75 2.1 35.7 71 -2.6 27.4
14:30 1009 29.8 838 24.75 2.2 36 72 -2.4 27.7
14:35 1009 29.8 838 24.75 2.4 36.2 72 -2.2 28.1
14:40 1009 29.8 838 24.75 2.5 36.4 72 -2 28.4
14:45 1009 29.8 838 24.75 2.3 36.1 75 -1.8 28.8
14:50 1009 29.8 838 24.75 2.6 36.7 73 -1.8 28.8
14:55 1009 29.8 838 24.75 2.7 36.9 73 -1.7 28.9
15:00 1009 29.8 838 24.75 2.8 37 72 -1.7 28.9
15:05 1009 29.8 838 24.75 2.9 37.1 72 -1.7 28.9
15:10 1009 29.8 838 24.75 2.9 37.2 72 -1.7 28.9
15:15 1009 29.8 838 24.75 2.9 37.2 72 -1.7 29
15:20 1009 29.8 838 24.75 2.9 37.1 73 -1.5 29.3
15:25 1009 29.8 838 24.75 2.9 37.2 72 -1.7 28.9
15:30 1009 29.8 838 24.75 2.9 37.1 73 -1.6 29.2
15:35 1009 29.8 838 24.75 2.7 36.9 74 -1.4 29.4
15:40 1009 29.8 838 24.75 2.5 36.5 75 -1.5 29.4
15:45 1009 29.8 838 24.75 2.2 35.9 77 -1.5 29.4
15:50 1009 29.8 838 24.75 1.8 35.3 81 -1 30.1
15:55 1009 29.8 838 24.75 1.5 34.7 82 -1.1 29.9
16:00 1009 29.8 838 24.75 1.4 34.5 84 -1.1 30.1
16:05 1009 29.8 838 24.75 1.4 34.5 83 -1.2 29.9
16:10 1009 29.8 838 24.75 1.3 34.4 84 -1.1 30
16:15 1009 29.8 838 24.75 1.3 34.3 84 -1.1 30
16:20 1009 29.8 838 24.75 1.2 34.2 85 -1.1 30
16:25 1009 29.8 838 24.75 1.1 34 85 -1.1 30
16:30 1009 29.8 838 24.75 0.9 33.5 86 -1.2 29.8
16:35 1009 29.8 838 24.75 0.6 33.1 87 -1.3 29.7
16:40 1009 29.8 838 24.75 0.4 32.7 88 -1.3 29.6
16:45 1009 29.8 838 24.75 0.3 32.5 89 -1.3 29.6
16:50 1009 29.8 838 24.75 0.2 32.4 89 -1.3 29.6
16:55 1009 29.8 839 24.78 0.2 32.4 89 -1.3 29.6
17:00 1009 29.8 839 24.78 0.1 32.3 89 -1.4 29.5
17:05 1009 29.8 839 24.78 0 32.1 90 -1.5 29.3
17:10 1009 29.8 838 24.75 -0 32 89 -1.6 29.1
17:15 1009 29.8 838 24.75 -0 31.9 89 -1.6 29.1
17:20 1009 29.8 839 24.78 -0.1 31.8 89 -1.7 28.9
17:25 1009 29.8 839 24.78 -0.2 31.7 89 -1.8 28.8
17:30 1010 29.83 839 24.78 -0.3 31.5 89 -1.8 28.7
17:35 1010 29.83 839 24.78 -0.3 31.5 89 -1.8 28.7
17:40 1010 29.83 839 24.78 -0.3 31.5 89 -1.8 28.7
17:45 1010 29.83 839 24.78 -0.3 31.4 89 -1.9 28.6
17:50 1009 29.8 839 24.78 -0.4 31.3 90 -1.8 28.7
17:55 1009 29.8 839 24.78 -0.4 31.2 90 -1.9 28.5
18:00 1009 29.8 839 24.78 -0.6 30.9 91 -2 28.5
18:05 1009 29.8 839 24.78 -0.8 30.6 91 -2 28.3
18:10 1010 29.83 839 24.78 -0.8 30.6 91 -2 28.3
18:15 1010 29.83 839 24.78 -0.7 30.7 91 -2 28.4
18:20 1010 29.83 839 24.78 -0.7 30.8 91 -1.9 28.5
18:25 1010 29.83 839 24.78 -0.6 30.9 92 -1.8 28.8
18:30 1010 29.83 839 24.78 -0.6 30.8 92 -1.8 28.8
18:35 1010 29.83 839 24.78 -0.7 30.7 92 -1.8 28.8
18:40 1010 29.83 839 24.78 -0.7 30.7 93 -1.8 28.8
18:45 1010 29.83 839 24.78 -0.7 30.8 93 -1.7 28.9
18:50 1010 29.83 839 24.78 -0.7 30.7 93 -1.7 28.9
18:55 1010 29.83 839 24.78 -0.7 30.7 93 -1.8 28.8
19:00 1010 29.83 839 24.78 -0.8 30.6 93 -1.7 28.9
19:05 1010 29.83 839 24.78 -0.7 30.7 93 -1.7 29
19:10 1010 29.83 839 24.78 -0.7 30.7 93 -1.7 29
19:15 1010 29.83 839 24.78 -0.8 30.6 93 -1.7 28.9
19:20 1010 29.83 839 24.78 -0.8 30.6 94 -1.7 28.9
19:25 1010 29.83 839 24.78 -0.7 30.7 93 -1.7 29
19:30 1010 29.83 839 24.78 -0.7 30.7 93 -1.7 29
19:35 1010 29.83 839 24.78 -0.8 30.6 93 -1.7 28.9
19:40 1010 29.83 839 24.78 -0.7 30.7 93 -1.7 29
19:45 1010 29.83 839 24.78 -0.8 30.5 93 -1.8 28.8
19:50 1010 29.83 839 24.78 -0.8 30.5 94 -1.7 28.9
19:55 1010 29.83 839 24.78 -0.8 30.5 94 -1.7 29
20:00 1010 29.83 839 24.78 -0.8 30.5 94 -1.7 28.9
20:05 1010 29.83 839 24.78 -0.8 30.5 94 -1.7 28.9
20:10 1010 29.83 839 24.78 -0.9 30.4 94 -1.8 28.8
20:15 1010 29.83 839 24.78 -1 30.2 94 -1.9 28.6
20:20 1010 29.83 839 24.78 -1.1 30 94 -1.9 28.5
20:25 1010 29.83 840 24.81 -1.2 29.9 94 -2 28.4
20:30 1010 29.83 840 24.81 -1.2 29.8 94 -2 28.4
20:35 1010 29.83 840 24.81 -1.3 29.7 94 -2.1 28.3
20:40 1010 29.83 840 24.81 -1.3 29.7 94 -2.1 28.3
20:45 1010 29.83 840 24.81 -1.4 29.6 94 -2.2 28.1
20:50 1011 29.85 840 24.81 -1.4 29.5 94 -2.2 28
20:55 1011 29.85 840 24.81 -1.5 29.3 94 -2.3 27.9
21:00 1011 29.85 840 24.81 -1.5 29.3 94 -2.3 27.9
21:05 1011 29.85 840 24.81 -1.6 29.2 94 -2.4 27.8
21:10 1011 29.85 840 24.81 -1.6 29.1 94 -2.4 27.7
21:15 1011 29.85 840 24.81 -1.6 29.1 94 -2.4 27.6
21:20 1011 29.85 840 24.81 -1.7 29 94 -2.4 27.6
21:25 1011 29.85 841 24.83 -1.7 29 95 -2.4 27.6
21:30 1011 29.85 841 24.83 -1.7 29 94 -2.5 27.6
21:35 1012 29.88 841 24.83 -1.7 29 94 -2.5 27.6
21:40 1012 29.88 841 24.83 -1.7 29 94 -2.5 27.6
21:45 1012 29.88 841 24.83 -1.7 29 95 -2.4 27.6
21:50 1012 29.88 841 24.83 -1.7 28.9 94 -2.5 27.5
21:55 1012 29.88 841 24.83 -1.7 29 95 -2.4 27.6
22:00 1012 29.88 841 24.83 -1.6 29 95 -2.4 27.7
22:05 1012 29.88 841 24.83 -1.6 29.1 95 -2.4 27.7
22:10 1012 29.88 841 24.83 -1.7 29 94 -2.5 27.6
22:15 1012 29.88 841 24.83 -1.8 28.9 95 -2.5 27.5
22:20 1012 29.88 841 24.83 -1.8 28.8 95 -2.5 27.4
22:25 1012 29.88 841 24.83 -1.8 28.8 95 -2.6 27.4
22:30 1012 29.88 841 24.83 -1.8 28.8 95 -2.5 27.5
22:35 1012 29.88 841 24.83 -1.7 28.9 95 -2.5 27.5
22:40 1012 29.88 841 24.83 -1.8 28.8 95 -2.5 27.4
22:45 1012 29.88 841 24.83 -1.8 28.7 95 -2.6 27.4
22:50 1012 29.88 841 24.83 -1.8 28.7 95 -2.6 27.4
22:55 1012 29.88 841 24.83 -1.9 28.6 95 -2.6 27.3
23:00 1012 29.88 841 24.83 -1.9 28.6 95 -2.6 27.3
23:05 1012 29.88 841 24.83 -1.9 28.6 95 -2.6 27.3
23:10 1012 29.88 841 24.83 -1.9 28.6 95 -2.6 27.3
23:15 1012 29.88 841 24.83 -1.9 28.6 95 -2.6 27.3
23:20 1012 29.88 841 24.83 -1.9 28.6 95 -2.7 27.2
23:25 1012 29.88 841 24.83 -2 28.5 95 -2.7 27.2
23:30 1012 29.88 841 24.83 -2 28.4 95 -2.7 27.1
23:35 1012 29.88 841 24.83 -2 28.4 95 -2.7 27.1
23:40 1012 29.88 841 24.83 -2 28.4 95 -2.7 27.1
23:45 1012 29.88 841 24.83 -2 28.4 95 -2.7 27.1
23:50 1012 29.88 841 24.83 -2 28.4 95 -2.7 27.1
23:55 1012 29.88 841 24.83 -2 28.4 95 -2.8 27
24:00 1012 29.88 841 24.83 -2 28.4 95 -2.8 27